MET2387 - Kansas City to Rochester

Bombardier Dash-8-Q200
838AH
1 hr 15 mins
294 nm
Scheduled - Daily

Bid/PiRep Status

Bid was submitted on Nov 22 2016.

PiRep # 74153: Approved by Dave Nichols on November 28th, 2016 5:07 UTC

Departure

Departing from
Kansas City (MCI)
Departure gate
Scheduled Departure
GMT 1900
Local 1400
METAR KMCI 281934Z 03006KT 1SM R19R/P6000FT -DZ BR BKN003 OVC009 14/13 A2970 RMK AO2 SFC VIS 3 CIG 002V007 P0000 T01440133
TAF KMCI 281722Z 2818/2918 VRB05KT P6SM OVC012 TEMPO 2818/2819 BKN009 FM282100 03008KT P6SM BKN020 FM290100 04010KT P6SM BKN012 FM291100 05014KT 5SM -RA OVC008

Arrival

Arriving at
Rochester (RST)
Arrival gate
A4
Scheduled Arrival
GMT 2015
Local 1515
METAR KRST 281854Z 00000KT 10SM FEW029 07/00 A2993 RMK AO2 SLP148 T00670000
TAF KRST 281730Z 2818/2918 33005KT P6SM BKN150 FM290900 03009KT P6SM BKN250

Route Map

Planning Resources

ROYAL3 TONCE DSM J25 MCW YESUR [D147M] EGACE [D110M] D095M
ROYAL3 TONCE DSM J25 MCW RST
ROYAL 5 STJ DSM J25 MCW RST KRST
MCI STJ DSM J25 MCW RST
BACNN DSM JORDY MCW
Route:
OFP Layout:
Units:
Detailed Navlog:
ETOPS Planning:
Plan Stepclimbs:
Runway Analysis:
Include NOTAMS:
FIR NOTAMS:
Flight Maps:

Return Flights

MET2386
Bombardier Dash-8-Q200
1535 GMT
MET2388
Bombardier Dash-8-Q200
2035 GMT

Popularity

Hub Current Bids PiReps this month Total PiReps
KMCI 0 0 3
KLAX 0 0 0
KBOS 0 0 0